Time;durP1;ratioP1;P1;durP2;ratioP2;P2;SDS_P1;SDS_P2;PMS_P1;PMS_P2;Temp;Humidity;BMP_temperature;BMP_pressure;BME280_temperature;BME280_humidity;BME280_pressure;Samples;Min_cycle;Max_cycle;Signal;HPM_P1;HPM_P2
2021/06/26 00:01:41;;;;;;;20.50;10.00;;;;;;;16.40;100.00;99368.56;10256970;29;20275;-82
2021/06/26 00:07:00;;;;;;;15.27;10.00;;;;;;;16.44;100.00;99369.28;10258110;29;20249;-82
2021/06/26 00:12:19;;;;;;;15.53;10.77;;;;;;;16.17;100.00;99372.22;10258143;29;20179;-82
2021/06/26 00:17:38;;;;;;;19.97;10.83;;;;;;;16.19;100.00;99380.88;10256730;28;20175;-81
2021/06/26 00:22:58;;;;;;;17.03;10.60;;;;;;;15.96;100.00;99378.19;10261042;29;20646;-82
2021/06/26 00:28:17;;;;;;;19.20;11.20;;;;;;;15.76;100.00;99368.31;10221019;29;20219;-81
2021/06/26 00:33:36;;;;;;;16.80;11.30;;;;;;;15.72;100.00;99378.72;10216808;29;20785;-82
2021/06/26 00:38:55;;;;;;;17.07;9.57;;;;;;;15.63;100.00;99384.03;10217553;29;20209;-82
2021/06/26 00:44:13;;;;;;;18.90;9.73;;;;;;;15.55;100.00;99379.84;10218296;29;20183;-81
2021/06/26 00:49:32;;;;;;;16.33;10.20;;;;;;;15.66;100.00;99383.19;10215361;29;20210;-82
2021/06/26 00:54:51;;;;;;;19.80;10.47;;;;;;;15.70;100.00;99375.56;10225208;29;20190;-82
2021/06/26 01:00:12;;;;;;;19.50;10.70;;;;;;;15.60;100.00;99378.56;10256716;29;20194;-81
2021/06/26 01:05:31;;;;;;;23.40;11.30;;;;;;;15.54;100.00;99371.94;10256956;29;20210;-82
2021/06/26 01:10:51;;;;;;;21.33;10.67;;;;;;;15.41;100.00;99373.75;10258327;29;20183;-81
2021/06/26 01:16:11;;;;;;;21.00;10.13;;;;;;;15.19;100.00;99364.25;10255176;29;20187;-81
2021/06/26 01:21:34;;;;;;;14.47;8.97;;;;;;;15.06;100.00;99357.75;10256546;29;20179;-81
2021/06/26 01:27:00;;;;;;;19.77;11.57;;;;;;;15.05;100.00;99367.25;10231417;29;20215;-82
2021/06/26 01:32:20;;;;;;;13.60;9.83;;;;;;;15.20;100.00;99368.59;10215008;29;20224;-82
2021/06/26 01:37:41;;;;;;;19.50;10.43;;;;;;;15.15;100.00;99378.16;10215487;29;20179;-82
2021/06/26 01:43:00;;;;;;;18.37;10.50;;;;;;;14.98;100.00;99377.66;10215946;29;20179;-81
2021/06/26 01:48:21;;;;;;;17.37;9.10;;;;;;;14.76;100.00;99376.47;10214240;29;20203;-82
2021/06/26 01:53:40;;;;;;;17.53;10.27;;;;;;;14.65;100.00;99359.22;10216514;29;20179;-82
2021/06/26 01:59:03;;;;;;;16.40;10.90;;;;;;;14.84;100.00;99372.38;10254090;29;20233;-82
2021/06/26 02:04:21;;;;;;;20.13;10.37;;;;;;;14.74;100.00;99370.56;10253856;29;20190;-83
2021/06/26 02:09:40;;;;;;;16.20;10.60;;;;;;;14.56;100.00;99367.25;10253825;29;20301;-82
2021/06/26 02:14:59;;;;;;;16.37;10.30;;;;;;;14.59;100.00;99364.44;10254457;29;20179;-82
2021/06/26 02:20:18;;;;;;;19.67;10.40;;;;;;;14.66;100.00;99371.88;10253280;29;20269;-82
2021/06/26 02:25:37;;;;;;;22.50;11.50;;;;;;;14.66;100.00;99371.88;10218458;29;20203;-82
2021/06/26 02:30:57;;;;;;;17.93;9.70;;;;;;;14.54;100.00;99369.66;10213213;29;20302;-82
2021/06/26 02:36:15;;;;;;;17.17;8.90;;;;;;;14.41;100.00;99377.78;10214351;29;20175;-82
2021/06/26 02:41:34;;;;;;;23.07;11.10;;;;;;;14.38;100.00;99381.38;10212542;29;20179;-82
2021/06/26 02:46:53;;;;;;;22.33;11.87;;;;;;;14.44;100.00;99378.94;10211581;29;20210;-82
2021/06/26 02:52:12;;;;;;;16.80;10.60;;;;;;;14.32;100.00;99373.19;10220186;29;20653;-82
2021/06/26 02:57:31;;;;;;;18.27;9.97;;;;;;;14.29;100.00;99374.00;10227538;29;20249;-82
2021/06/26 03:02:51;;;;;;;20.70;12.07;;;;;;;14.41;100.00;99377.00;10251245;29;20182;-82
2021/06/26 03:08:11;;;;;;;14.30;9.20;;;;;;;14.36;100.00;99371.94;10252870;29;20210;-82
2021/06/26 03:13:30;;;;;;;19.17;10.23;;;;;;;14.30;100.00;99365.28;10253072;29;20174;-82
2021/06/26 03:18:49;;;;;;;18.23;10.93;;;;;;;14.25;100.00;99368.50;10250895;29;20178;-82
2021/06/26 03:24:09;;;;;;;15.93;9.63;;;;;;;14.17;100.00;99369.81;10230197;29;20655;-83
2021/06/26 03:29:28;;;;;;;15.60;9.57;;;;;;;14.05;100.00;99377.84;10211473;29;20270;-82
2021/06/26 03:34:46;;;;;;;18.80;11.40;;;;;;;13.98;100.00;99375.19;10212100;29;20545;-82
2021/06/26 03:40:09;;;;;;;17.27;10.67;;;;;;;13.92;100.00;99366.56;10212236;29;20184;-81
2021/06/26 03:45:28;;;;;;;18.60;10.40;;;;;;;14.00;100.00;99372.78;10212088;29;20211;-82
2021/06/26 03:50:47;;;;;;;20.67;11.20;;;;;;;14.14;100.00;99372.63;10211468;29;20179;-82
2021/06/26 03:56:06;;;;;;;14.87;9.27;;;;;;;14.05;100.00;99381.41;10256763;29;20285;-82
2021/06/26 04:01:25;;;;;;;18.23;9.93;;;;;;;13.97;100.00;99382.69;10258352;29;20175;-81
2021/06/26 04:06:43;;;;;;;17.40;9.90;;;;;;;13.99;100.00;99380.28;10259159;29;20214;-81
2021/06/26 04:12:03;;;;;;;16.90;9.40;;;;;;;14.10;100.00;99389.25;10258095;29;20614;-81
2021/06/26 04:17:22;;;;;;;14.20;9.23;;;;;;;14.18;100.00;99388.00;10256849;29;20183;-82
2021/06/26 04:22:44;;;;;;;55.27;11.23;;;;;;;14.28;100.00;99389.84;10256103;29;20191;-82
2021/06/26 04:28:05;;;;;;;17.20;10.27;;;;;;;14.38;100.00;99397.19;10258202;29;20217;-82
2021/06/26 04:33:28;;;;;;;20.57;9.77;;;;;;;14.46;100.00;99396.69;10255545;29;20685;-82
2021/06/26 04:38:47;;;;;;;16.00;9.57;;;;;;;14.64;100.00;99401.94;10257236;29;20179;-82
2021/06/26 04:44:06;;;;;;;15.30;8.60;;;;;;;14.76;100.00;99398.63;10258024;29;20633;-82
2021/06/26 04:49:25;;;;;;;19.37;10.20;;;;;;;14.88;100.00;99404.34;10255972;29;20720;-83
2021/06/26 04:54:44;;;;;;;19.77;10.40;;;;;;;14.95;100.00;99406.22;10228451;29;20638;-83
2021/06/26 05:00:05;;;;;;;20.67;11.60;;;;;;;15.06;100.00;99404.84;10217733;29;20191;-83
2021/06/26 05:05:24;;;;;;;20.97;11.83;;;;;;;15.15;100.00;99408.66;10215715;29;20207;-82
2021/06/26 05:10:43;;;;;;;20.13;11.07;;;;;;;15.26;100.00;99411.25;10217326;29;20183;-80
2021/06/26 05:16:02;;;;;;;18.87;9.63;;;;;;;15.45;100.00;99414.06;10216059;29;20523;-82
2021/06/26 05:21:21;;;;;;;20.10;10.67;;;;;;;15.55;100.00;99415.88;10222190;29;20187;-81
2021/06/26 05:26:40;;;;;;;19.80;11.00;;;;;;;15.60;100.00;99426.47;10258640;29;20210;-80
2021/06/26 05:31:59;;;;;;;16.23;9.97;;;;;;;15.63;100.00;99422.09;10255534;29;20226;-82
2021/06/26 05:37:18;;;;;;;22.33;9.70;;;;;;;15.75;100.00;99411.13;10256086;29;20175;-82
2021/06/26 05:42:37;;;;;;;15.97;9.53;;;;;;;16.05;100.00;99425.59;10254948;29;20175;-82
2021/06/26 05:47:56;;;;;;;19.90;10.23;;;;;;;16.18;100.00;99418.19;10252925;29;20297;-81
2021/06/26 05:53:18;;;;;;;27.33;9.87;;;;;;;16.32;100.00;99425.44;10234672;29;20187;-82
2021/06/26 05:58:37;;;;;;;20.40;10.77;;;;;;;16.51;100.00;99422.66;10252001;29;20183;-82
2021/06/26 06:03:56;;;;;;;18.13;10.30;;;;;;;16.75;100.00;99423.31;10252916;29;20562;-82
2021/06/26 06:09:15;;;;;;;23.27;11.00;;;;;;;16.83;100.00;99423.50;10254079;29;20241;-83
2021/06/26 06:14:34;;;;;;;17.73;9.13;;;;;;;16.97;100.00;99425.94;10254582;28;20182;-81
2021/06/26 06:19:53;;;;;;;20.83;11.10;;;;;;;17.18;100.00;99427.41;10253370;29;20202;-81
2021/06/26 06:25:12;;;;;;;20.87;12.23;;;;;;;17.42;100.00;99423.25;10215571;29;20678;-81
2021/06/26 06:30:34;;;;;;;15.90;9.60;;;;;;;17.86;100.00;99426.03;10213136;29;20701;-81
2021/06/26 06:35:54;;;;;;;18.10;9.40;;;;;;;17.98;100.00;99428.09;10212253;29;20195;-81
2021/06/26 06:41:13;;;;;;;24.37;13.73;;;;;;;18.19;100.00;99435.84;10214266;29;20175;-82
2021/06/26 06:46:31;;;;;;;19.37;11.57;;;;;;;18.54;100.00;99446.75;10211593;29;20203;-81
2021/06/26 06:51:50;;;;;;;22.57;12.03;;;;;;;18.56;100.00;99436.75;10223616;29;20187;-81
2021/06/26 06:57:09;;;;;;;18.97;11.80;;;;;;;19.09;100.00;99437.88;10224207;29;20191;-81
2021/06/26 07:02:28;;;;;;;17.50;11.03;;;;;;;19.52;100.00;99442.41;10211554;29;20566;-82
2021/06/26 07:07:47;;;;;;;29.93;12.07;;;;;;;20.00;100.00;99443.97;10224859;29;20663;-82
2021/06/26 07:13:06;;;;;;;22.67;12.73;;;;;;;20.35;100.00;99441.44;10213573;29;20171;-83
2021/06/26 07:18:26;;;;;;;22.07;11.20;;;;;;;20.94;100.00;99441.16;10211333;29;20195;-83
2021/06/26 07:23:45;;;;;;;17.33;12.30;;;;;;;21.45;100.00;99445.06;10212072;29;20191;-83
2021/06/26 07:29:05;;;;;;;19.20;12.17;;;;;;;21.94;100.00;99447.34;10217644;29;20238;-84
2021/06/26 07:34:24;;;;;;;18.60;11.90;;;;;;;22.10;100.00;99430.22;10218871;29;20175;-83
2021/06/26 07:39:43;;;;;;;19.10;11.57;;;;;;;22.52;100.00;99425.50;10219743;29;20549;-82
2021/06/26 07:45:03;;;;;;;26.90;13.20;;;;;;;22.35;100.00;99431.91;10252201;29;20269;-82
2021/06/26 07:50:22;;;;;;;19.63;11.50;;;;;;;22.89;100.00;99430.53;10258771;29;20182;-83
2021/06/26 07:55:42;;;;;;;20.47;12.37;;;;;;;23.47;100.00;99412.00;10258644;29;20258;-83
2021/06/26 08:01:00;;;;;;;22.87;12.10;;;;;;;23.47;99.37;99423.25;10259694;29;20174;-82
2021/06/26 08:06:19;;;;;;;20.60;12.13;;;;;;;23.95;94.52;99407.16;10259317;29;20214;-81
2021/06/26 08:11:38;;;;;;;17.20;10.97;;;;;;;24.63;93.34;99415.13;10250065;29;20270;-81
2021/06/26 08:16:57;;;;;;;19.53;12.00;;;;;;;24.71;93.40;99402.19;10218201;29;20639;-81
2021/06/26 08:22:16;;;;;;;18.10;11.57;;;;;;;25.48;86.47;99393.66;10217725;29;20175;-82
2021/06/26 08:27:35;;;;;;;19.43;12.63;;;;;;;25.92;64.92;99388.63;10217652;29;20246;-82
2021/06/26 08:32:56;;;;;;;19.67;11.20;;;;;;;26.27;61.56;99392.84;10217929;29;20226;-81
2021/06/26 08:38:15;;;;;;;15.33;11.10;;;;;;;26.49;64.69;99389.50;10218063;29;20184;-81
2021/06/26 08:43:35;;;;;;;16.30;11.17;;;;;;;26.49;62.16;99393.09;10244329;29;20198;-82
2021/06/26 08:48:54;;;;;;;15.20;11.00;;;;;;;26.93;58.62;99394.25;10222625;29;20258;-81
2021/06/26 08:54:15;;;;;;;13.53;11.23;;;;;;;27.56;58.04;99388.00;10218591;29;20191;-81
2021/06/26 08:59:34;;;;;;;17.10;11.77;;;;;;;28.01;52.41;99377.66;10219865;29;20191;-81
2021/06/26 09:04:54;;;;;;;17.77;12.13;;;;;;;28.02;55.55;99376.38;10215636;29;20175;-81
2021/06/26 09:10:20;;;;;;;18.70;11.97;;;;;;;28.26;52.57;99383.13;10216306;29;20195;-82
2021/06/26 09:15:39;;;;;;;19.20;10.60;;;;;;;28.30;55.23;99381.59;10216301;29;20195;-82
2021/06/26 09:20:59;;;;;;;12.90;9.13;;;;;;;29.06;49.32;99373.66;10215711;29;20583;-82
2021/06/26 09:26:18;;;;;;;10.97;8.00;;;;;;;29.36;44.78;99369.78;10215638;29;20211;-82
2021/06/26 09:31:52;;;;;;;14.60;9.00;;;;;;;29.91;45.94;99369.56;10241732;29;20298;-81
2021/06/26 09:37:17;;;;;;;9.40;7.33;;;;;;;29.43;46.33;99366.41;10255304;29;20190;-82
2021/06/26 09:42:37;;;;;;;9.50;7.73;;;;;;;29.49;42.44;99367.13;10255862;29;20183;-82
2021/06/26 09:48:04;;;;;;;12.03;8.87;;;;;;;28.70;46.45;99361.31;10254759;29;20218;-82
2021/06/26 09:53:23;;;;;;;8.03;6.53;;;;;;;29.80;41.96;99361.13;10253196;29;20187;-82
2021/06/26 09:58:49;;;;;;;8.10;7.20;;;;;;;30.44;40.75;99362.03;10253531;29;20183;-82
2021/06/26 10:04:12;;;;;;;9.80;8.10;;;;;;;30.86;39.37;99355.75;10253177;29;20258;-82
2021/06/26 10:09:31;;;;;;;9.00;7.70;;;;;;;29.68;42.66;99349.03;10260564;29;20222;-83
2021/06/26 10:14:51;;;;;;;9.43;8.10;;;;;;;29.58;44.70;99341.34;10255343;29;20174;-83
2021/06/26 10:20:12;;;;;;;12.07;7.20;;;;;;;30.68;41.88;99339.41;10253817;29;20183;-83
2021/06/26 10:25:34;;;;;;;7.40;6.40;;;;;;;30.93;43.19;99341.00;10246958;29;20195;-83
2021/06/26 10:31:13;;;;;;;11.27;7.10;;;;;;;31.53;38.68;99328.97;10230992;29;20223;-82
2021/06/26 10:36:33;;;;;;;7.57;6.87;;;;;;;31.56;36.98;99330.75;10240612;29;20214;-82
2021/06/26 10:41:59;;;;;;;8.33;7.47;;;;;;;31.38;37.00;99325.03;10252728;29;20250;-82
2021/06/26 10:47:32;;;;;;;9.13;7.23;;;;;;;31.03;41.02;99319.44;10222918;29;20222;-83
2021/06/26 10:52:56;;;;;;;9.07;7.60;;;;;;;31.95;37.41;99322.47;10214382;29;20627;-83
2021/06/26 10:58:27;;;;;;;6.70;6.20;;;;;;;32.06;35.84;99326.00;10215866;29;20179;-82
2021/06/26 11:03:49;;;;;;;8.90;6.40;;;;;;;30.07;36.94;99322.03;10214274;29;20179;-83
2021/06/26 11:09:10;;;;;;;5.83;5.30;;;;;;;29.85;38.86;99312.84;10217215;29;20258;-84
2021/06/26 11:14:29;;;;;;;9.47;6.10;;;;;;;29.99;39.75;99314.59;10217703;29;20183;-84
2021/06/26 11:19:49;;;;;;;6.33;5.73;;;;;;;30.93;34.57;99316.16;10215752;29;20179;-83
2021/06/26 11:25:11;;;;;;;5.37;4.97;;;;;;;31.85;34.69;99307.88;10216507;29;20195;-83
2021/06/26 11:30:31;;;;;;;4.57;4.27;;;;;;;31.94;33.80;99307.50;10214729;29;20211;-83
2021/06/26 11:35:50;;;;;;;5.90;5.40;;;;;;;32.93;33.12;99309.53;10217347;29;20639;-83
2021/06/26 11:41:11;;;;;;;4.97;4.57;;;;;;;32.37;35.74;99308.16;10216018;29;20608;-83
2021/06/26 11:46:30;;;;;;;6.00;5.40;;;;;;;33.24;33.94;99305.84;10215813;29;20219;-83
2021/06/26 11:51:53;;;;;;;7.33;4.67;;;;;;;33.70;34.22;99305.22;10216081;29;20179;-83
2021/06/26 11:57:13;;;;;;;4.20;3.90;;;;;;;33.80;30.85;99295.63;10214747;29;20171;-83
2021/06/26 12:02:34;;;;;;;5.87;5.37;;;;;;;33.90;34.23;99293.84;10211934;29;20580;-83
2021/06/26 12:08:02;;;;;;;4.43;4.13;;;;;;;34.45;28.95;99299.03;10242575;29;20300;-82
2021/06/26 12:13:21;;;;;;;4.97;4.57;;;;;;;33.56;32.05;99297.97;10256242;28;20186;-83
2021/06/26 12:18:55;;;;;;;4.27;3.97;;;;;;;32.30;32.50;99290.94;10256658;29;20178;-82
2021/06/26 12:24:29;;;;;;;5.97;5.00;;;;;;;32.18;33.73;99281.78;10258783;29;20293;-83
2021/06/26 12:29:56;;;;;;;5.33;4.83;;;;;;;32.09;34.84;99287.13;10256970;29;20735;-82
2021/06/26 12:35:16;;;;;;;4.50;4.10;;;;;;;32.96;35.14;99282.78;10253906;29;20605;-82
2021/06/26 12:40:44;;;;;;;6.60;5.77;;;;;;;32.23;36.14;99274.47;10220934;29;20570;-83
2021/06/26 12:46:03;;;;;;;4.40;4.00;;;;;;;33.05;31.21;99275.88;10220877;29;20694;-82
2021/06/26 12:51:54;;;;;;;4.80;4.40;;;;;;;31.73;33.45;99271.56;10219542;29;20254;-82
2021/06/26 12:57:13;;;;;;;5.00;4.57;;;;;;;30.34;34.74;99257.81;10218382;29;20714;-82
2021/06/26 13:02:36;;;;;;;5.17;4.73;;;;;;;31.56;34.93;99250.38;10217219;29;20539;-83
2021/06/26 13:08:06;;;;;;;7.20;4.17;;;;;;;33.12;33.02;99232.50;10241764;29;20662;-83
2021/06/26 13:13:26;;;;;;;5.80;5.30;;;;;;;34.31;35.24;99220.44;10260328;29;20527;-82
2021/06/26 13:18:45;;;;;;;4.80;4.40;;;;;;;34.59;31.43;99229.09;10258307;29;20170;-85
2021/06/26 13:24:04;;;;;;;4.87;4.37;;;;;;;35.31;29.77;99234.34;10258168;28;20209;-83
2021/06/26 13:29:23;;;;;;;4.40;4.07;;;;;;;35.22;28.84;99226.28;10242621;29;20317;-83
2021/06/26 13:34:43;;;;;;;4.03;3.73;;;;;;;34.62;30.76;99219.38;10257252;29;20182;-83
2021/06/26 13:40:04;;;;;;;3.90;3.50;;;;;;;35.05;27.22;99223.16;10260595;29;20174;-83
2021/06/26 13:45:23;;;;;;;2.93;2.73;;;;;;;34.81;26.21;99210.59;10254132;29;20665;-83
2021/06/26 13:50:42;;;;;;;3.67;3.37;;;;;;;34.13;27.74;99209.22;10252013;29;20187;-83
2021/06/26 13:56:01;;;;;;;3.13;2.93;;;;;;;32.08;31.22;99212.31;10240283;29;20252;-82
2021/06/26 14:01:21;;;;;;;3.47;3.13;;;;;;;33.67;32.22;99192.13;10222229;29;20627;-83
2021/06/26 14:06:40;;;;;;;3.67;3.47;;;;;;;34.71;28.27;99196.00;10224123;29;20230;-83
2021/06/26 14:11:59;;;;;;;3.80;3.50;;;;;;;35.10;27.60;99192.84;10227872;29;20270;-84
2021/06/26 14:17:31;;;;;;;4.00;3.70;;;;;;;35.35;29.26;99188.19;10533770;27;20787;-83
2021/06/26 14:22:50;;;;;;;3.27;3.07;;;;;;;35.42;29.06;99191.09;10517336;28;20225;-82
2021/06/26 14:28:10;;;;;;;3.23;2.93;;;;;;;35.29;28.26;99191.25;10491992;28;20166;-83
2021/06/26 14:33:29;;;;;;;3.30;3.10;;;;;;;35.53;26.76;99190.81;10489603;28;20210;-82
2021/06/26 14:38:49;;;;;;;3.73;3.53;;;;;;;35.09;27.82;99189.22;10491674;28;20560;-83
2021/06/26 14:44:08;;;;;;;3.13;2.93;;;;;;;35.58;27.41;99184.13;10491240;28;20178;-83
2021/06/26 14:49:27;;;;;;;4.80;3.37;;;;;;;33.59;27.98;99183.50;10489075;28;20178;-81
2021/06/26 14:54:47;;;;;;;3.73;3.43;;;;;;;32.19;31.69;99175.13;10490908;28;20210;-82
2021/06/26 15:00:07;;;;;;;3.27;3.07;;;;;;;32.48;31.78;99172.00;10490655;28;20179;-82
2021/06/26 15:05:26;;;;;;;3.37;3.10;;;;;;;33.05;30.21;99167.53;10488985;28;20218;-82
2021/06/26 15:10:45;;;;;;;3.43;3.23;;;;;;;32.65;32.17;99166.00;10488913;28;20634;-81
2021/06/26 15:16:04;;;;;;;2.80;2.60;;;;;;;32.43;30.68;99158.63;10487941;28;20238;-82
2021/06/26 15:21:23;;;;;;;3.03;2.83;;;;;;;32.10;30.59;99157.72;10489420;28;20198;-81
2021/06/26 15:26:42;;;;;;;3.00;2.80;;;;;;;32.51;30.64;99148.13;10472939;28;20175;-82
2021/06/26 15:32:01;;;;;;;3.00;2.80;;;;;;;33.28;30.68;99146.59;10460411;28;20187;-82
2021/06/26 15:37:20;;;;;;;2.90;2.70;;;;;;;32.32;30.93;99138.13;10460063;28;20203;-81
2021/06/26 15:42:39;;;;;;;3.57;3.30;;;;;;;32.47;31.09;99130.59;10460954;28;20179;-82
2021/06/26 15:47:58;;;;;;;2.97;2.77;;;;;;;32.38;30.79;99129.50;10460072;28;20175;-82
2021/06/26 15:53:17;;;;;;;3.03;2.80;;;;;;;32.72;30.50;99116.91;10459846;28;20657;-82
2021/06/26 15:58:37;;;;;;;3.13;2.90;;;;;;;32.79;29.41;99122.72;10460941;28;20184;-83
2021/06/26 16:03:55;;;;;;;4.00;3.13;;;;;;;32.81;29.29;99113.63;10459671;28;20258;-82
2021/06/26 16:09:15;;;;;;;2.17;2.07;;;;;;;32.21;27.13;99118.41;10419795;28;20171;-83
2021/06/26 16:14:35;;;;;;;2.60;2.40;;;;;;;30.15;32.83;99115.03;10420805;28;20228;-81
2021/06/26 16:19:54;;;;;;;3.20;2.90;;;;;;;30.83;35.03;99096.19;10432667;28;20172;-82
2021/06/26 16:25:16;;;;;;;3.57;2.70;;;;;;;31.73;33.06;99095.94;10419482;28;20176;-82
2021/06/26 16:30:39;;;;;;;2.97;2.77;;;;;;;31.70;31.88;99093.44;10426844;28;20659;-81
2021/06/26 16:36:01;;;;;;;3.13;2.93;;;;;;;31.32;33.08;99088.31;10472061;28;20574;-82
2021/06/26 16:41:21;;;;;;;2.90;2.70;;;;;;;31.40;33.37;99089.97;10462407;28;20563;-81
2021/06/26 16:46:39;;;;;;;3.00;2.70;;;;;;;31.63;32.14;99083.44;10459430;28;20623;-81
2021/06/26 16:51:58;;;;;;;3.20;2.90;;;;;;;31.77;34.17;99090.69;10458659;28;20183;-83
2021/06/26 16:57:18;;;;;;;2.87;2.67;;;;;;;31.32;32.67;99082.63;10457893;28;20215;-84
2021/06/26 17:02:37;;;;;;;5.43;3.37;;;;;;;31.36;33.15;99083.06;10456232;28;20183;-84
2021/06/26 17:07:56;;;;;;;3.10;2.90;;;;;;;31.65;34.22;99077.97;10458213;28;20176;-83
2021/06/26 17:13:15;;;;;;;4.70;3.83;;;;;;;30.73;40.44;99082.91;10457767;28;20227;-84
2021/06/26 17:18:35;;;;;;;4.60;4.30;;;;;;;30.14;42.63;99082.28;10455434;28;20183;-83
2021/06/26 17:23:54;;;;;;;6.60;5.70;;;;;;;29.73;43.56;99087.28;10456585;28;20195;-83
2021/06/26 17:29:13;;;;;;;5.20;4.70;;;;;;;29.43;44.72;99097.84;10456043;28;20537;-84
2021/06/26 17:34:32;;;;;;;5.13;4.63;;;;;;;29.29;46.32;99087.59;10455329;28;20677;-83
2021/06/26 17:39:51;;;;;;;4.80;4.40;;;;;;;29.44;43.94;99095.78;10455335;28;20183;-83
2021/06/26 17:45:11;;;;;;;5.37;4.87;;;;;;;29.07;44.74;99089.03;10456709;28;20202;-83
2021/06/26 17:50:30;;;;;;;5.13;4.70;;;;;;;27.97;47.34;99089.41;10455039;28;20183;-83
2021/06/26 17:55:55;;;;;;;6.03;5.13;;;;;;;27.42;48.54;99101.97;10450208;28;20207;-83
2021/06/26 18:01:17;;;;;;;4.53;4.23;;;;;;;27.11;49.61;99093.69;10413924;28;20188;-83
2021/06/26 18:06:37;;;;;;;5.00;4.60;;;;;;;26.63;50.12;99095.81;10414914;28;20635;-84
2021/06/26 18:11:56;;;;;;;4.47;4.03;;;;;;;26.57;51.14;99109.16;10414865;28;20258;-83
2021/06/26 18:17:15;;;;;;;4.57;4.17;;;;;;;26.09;52.89;99119.63;10412716;28;20231;-85
2021/06/26 18:22:35;;;;;;;5.40;4.90;;;;;;;25.95;55.68;99119.75;10414533;28;20207;-84
2021/06/26 18:27:54;;;;;;;7.20;4.53;;;;;;;25.68;57.46;99114.69;10431137;28;20208;-84
2021/06/26 18:33:14;;;;;;;5.07;4.57;;;;;;;25.43;58.53;99121.13;10453176;28;20195;-85
2021/06/26 18:38:36;;;;;;;5.60;5.13;;;;;;;25.24;59.30;99119.13;10454713;28;20203;-84
2021/06/26 18:43:55;;;;;;;5.73;4.10;;;;;;;25.00;59.67;99130.63;10483474;28;20175;-84
2021/06/26 18:49:13;;;;;;;6.83;5.20;;;;;;;24.75;60.06;99124.97;10453116;28;20642;-83
2021/06/26 18:54:32;;;;;;;6.97;6.00;;;;;;;24.52;61.08;99130.78;10454098;28;20219;-83
2021/06/26 18:59:51;;;;;;;8.13;6.33;;;;;;;24.44;61.84;99130.41;10454989;28;20642;-83
2021/06/26 19:05:12;;;;;;;6.23;5.63;;;;;;;24.36;62.24;99125.69;10460757;28;20175;-84
2021/06/26 19:10:31;;;;;;;6.73;6.03;;;;;;;24.18;63.43;99129.53;10462685;28;20183;-85
2021/06/26 19:15:51;;;;;;;7.27;6.53;;;;;;;24.04;63.83;99123.16;10461896;28;20306;-83
2021/06/26 19:21:14;;;;;;;17.10;10.80;;;;;;;23.81;64.93;99133.31;10461204;28;20211;-83
2021/06/26 19:26:33;;;;;;;9.00;7.53;;;;;;;23.51;66.22;99130.97;10462175;28;20171;-83
2021/06/26 19:31:53;;;;;;;7.60;6.60;;;;;;;23.28;67.84;99134.66;10460589;28;20187;-83
2021/06/26 19:37:13;;;;;;;7.30;5.80;;;;;;;23.01;68.19;99156.56;10460223;28;20203;-83
2021/06/26 19:42:32;;;;;;;6.20;5.60;;;;;;;22.87;68.48;99146.84;10460263;28;20175;-83
2021/06/26 19:47:51;;;;;;;5.23;4.67;;;;;;;22.77;69.28;99153.00;10459620;28;20179;-83
2021/06/26 19:53:10;;;;;;;7.53;6.73;;;;;;;22.57;70.17;99155.63;10459906;28;20192;-83
2021/06/26 19:58:30;;;;;;;9.20;7.47;;;;;;;22.43;71.36;99164.78;10461018;28;20179;-83
2021/06/26 20:03:49;;;;;;;5.87;5.27;;;;;;;22.29;71.63;99173.06;10458522;28;20176;-83
2021/06/26 20:09:08;;;;;;;6.47;5.33;;;;;;;22.06;73.65;99173.81;10459617;28;20232;-84
2021/06/26 20:14:27;;;;;;;5.37;4.83;;;;;;;21.84;75.64;99176.84;10459700;28;20230;-85
2021/06/26 20:19:46;;;;;;;6.03;5.47;;;;;;;21.66;76.56;99189.34;10458472;28;20211;-85
2021/06/26 20:25:07;;;;;;;9.27;5.50;;;;;;;21.56;76.81;99183.00;10459012;28;20262;-85
2021/06/26 20:30:26;;;;;;;6.37;5.73;;;;;;;21.48;77.62;99192.94;10459491;28;20529;-84
2021/06/26 20:35:46;;;;;;;5.73;5.23;;;;;;;21.39;78.57;99189.41;10456827;28;20211;-85
2021/06/26 20:41:05;;;;;;;6.97;6.30;;;;;;;21.23;79.48;99192.53;10459179;28;20258;-84
2021/06/26 20:46:24;;;;;;;9.40;6.50;;;;;;;21.14;79.45;99203.72;10457886;28;20222;-83
2021/06/26 20:51:42;;;;;;;10.30;6.63;;;;;;;21.05;80.34;99209.31;10457560;28;20634;-83
2021/06/26 20:57:01;;;;;;;5.93;5.43;;;;;;;20.93;79.85;99210.22;10457179;28;20203;-83
2021/06/26 21:02:21;;;;;;;9.40;6.70;;;;;;;20.82;83.50;99212.72;10457155;28;20171;-84
2021/06/26 21:07:40;;;;;;;7.43;6.20;;;;;;;20.74;87.39;99213.44;10458223;28;20179;-85
2021/06/26 21:12:59;;;;;;;10.53;7.40;;;;;;;20.57;89.64;99210.16;10456453;28;20227;-83
2021/06/26 21:18:18;;;;;;;9.17;6.50;;;;;;;20.34;96.89;99210.75;10456084;28;20638;-83
2021/06/26 21:23:37;;;;;;;9.77;7.20;;;;;;;20.25;100.00;99207.91;10456043;28;20211;-83
2021/06/26 21:28:56;;;;;;;8.33;6.40;;;;;;;19.97;100.00;99207.47;10456434;28;20179;-82
2021/06/26 21:34:15;;;;;;;9.50;7.10;;;;;;;19.88;100.00;99210.19;10455858;28;20297;-82
2021/06/26 21:39:34;;;;;;;9.80;7.00;;;;;;;19.85;100.00;99220.25;10456041;28;20176;-81
2021/06/26 21:44:53;;;;;;;14.80;8.40;;;;;;;19.84;100.00;99213.13;10457035;28;20631;-84
2021/06/26 21:50:14;;;;;;;8.90;7.50;;;;;;;19.79;100.00;99216.53;10453978;28;20540;-82
2021/06/26 21:55:33;;;;;;;9.03;6.53;;;;;;;19.58;100.00;99210.97;10456152;28;20238;-82
2021/06/26 22:00:53;;;;;;;16.03;8.40;;;;;;;19.53;100.00;99212.31;10455476;28;20187;-82
2021/06/26 22:06:12;;;;;;;11.77;7.47;;;;;;;19.42;100.00;99213.97;10455680;28;20250;-82
2021/06/26 22:11:31;;;;;;;8.80;6.20;;;;;;;19.40;100.00;99210.84;10455165;28;20179;-83
2021/06/26 22:16:50;;;;;;;12.10;6.50;;;;;;;19.13;100.00;99207.88;10452768;28;20231;-84
2021/06/26 22:22:09;;;;;;;7.70;5.80;;;;;;;19.09;100.00;99207.19;10456545;28;20199;-83
2021/06/26 22:27:28;;;;;;;7.93;5.07;;;;;;;19.06;100.00;99208.06;10456349;28;20183;-85
2021/06/26 22:32:49;;;;;;;4.87;4.37;;;;;;;18.98;100.00;99203.97;10454184;28;20183;-83
2021/06/26 22:38:08;;;;;;;6.27;5.03;;;;;;;18.90;100.00;99211.03;10462279;28;20622;-83
2021/06/26 22:43:28;;;;;;;6.20;5.60;;;;;;;18.89;100.00;99212.28;10462774;28;20179;-83
2021/06/26 22:48:47;;;;;;;6.77;5.93;;;;;;;18.73;100.00;99211.66;10461122;28;20179;-82
2021/06/26 22:54:06;;;;;;;6.43;5.40;;;;;;;18.70;100.00;99209.75;10464051;28;20210;-83
2021/06/26 22:59:25;;;;;;;6.93;5.97;;;;;;;18.67;100.00;99203.09;10462672;28;20171;-82
2021/06/26 23:04:44;;;;;;;5.10;4.67;;;;;;;18.61;100.00;99204.88;10461024;28;20623;-82
2021/06/26 23:10:08;;;;;;;6.07;5.00;;;;;;;18.52;100.00;99201.25;10462510;28;20183;-82
2021/06/26 23:15:28;;;;;;;8.10;5.03;;;;;;;18.45;100.00;99185.53;10461031;28;20583;-82
2021/06/26 23:20:49;;;;;;;8.07;5.60;;;;;;;18.39;100.00;99196.91;10459681;28;20211;-82
2021/06/26 23:26:08;;;;;;;9.50;6.33;;;;;;;18.32;100.00;99186.78;10461339;28;20545;-82
2021/06/26 23:31:27;;;;;;;9.30;6.27;;;;;;;18.27;100.00;99187.38;10459791;28;20934;-83
2021/06/26 23:36:46;;;;;;;8.37;5.80;;;;;;;18.24;100.00;99182.69;10460807;28;20676;-82
2021/06/26 23:42:07;;;;;;;6.50;5.40;;;;;;;18.19;100.00;99188.78;10460780;28;20573;-81
2021/06/26 23:47:26;;;;;;;10.57;7.57;;;;;;;18.09;100.00;99187.13;10458550;28;20207;-82
2021/06/26 23:52:47;;;;;;;11.17;6.10;;;;;;;18.01;100.00;99187.81;10461185;28;20186;-82
2021/06/26 23:58:06;;;;;;;9.93;5.70;;;;;;;17.95;100.00;99184.78;10461750;28;20626;-82
